Time;durP1;ratioP1;P1;durP2;ratioP2;P2;SDS_P1;SDS_P2;PMS_P1;PMS_P2;Temp;Humidity;BMP_temperature;BMP_pressure;BME280_temperature;BME280_humidity;BME280_pressure;Samples;Min_cycle;Max_cycle;Signal;HPM_P1;HPM_P2
2023/07/06 00:02:55;;;;;;;15.27;8.50;;;;;;;13.22;100.00;101315.44;5114938;28;20063;-81
2023/07/06 00:08:42;;;;;;;12.93;7.82;;;;;;;13.15;100.00;101311.97;5114587;28;20322;-79
2023/07/06 00:14:29;;;;;;;14.20;7.70;;;;;;;13.09;100.00;101311.00;5114761;28;20042;-80
2023/07/06 00:20:17;;;;;;;11.48;8.13;;;;;;;12.94;100.00;101307.78;5113762;28;20380;-78
2023/07/06 00:26:05;;;;;;;8.95;6.57;;;;;;;12.82;100.00;101310.38;5114464;28;20081;-80
2023/07/06 00:35:15;;;;;;;21.63;6.88;;;;;;;12.59;100.00;101313.59;5114157;28;20061;-81
2023/07/06 00:41:02;;;;;;;10.48;6.57;;;;;;;12.49;100.00;101315.94;5114004;28;20050;-79
2023/07/06 00:46:49;;;;;;;13.27;7.07;;;;;;;12.47;100.00;101323.38;5114180;28;20395;-78
2023/07/06 00:49:15;;;;;;;10.90;6.53;;;;;;;12.43;100.00;101313.28;5113828;28;20043;-79
2023/07/06 00:51:41;;;;;;;13.82;7.05;;;;;;;12.43;100.00;101315.97;5113022;28;20032;-78
2023/07/06 00:54:12;;;;;;;14.82;6.93;;;;;;;12.41;100.00;101321.53;5113712;28;20023;-78
2023/07/06 00:56:42;;;;;;;15.57;6.95;;;;;;;12.39;100.00;101307.53;5095503;28;20038;-79
2023/07/06 01:02:30;;;;;;;9.05;5.70;;;;;;;12.36;100.00;101308.78;5113923;28;20046;-79
2023/07/06 01:08:20;;;;;;;13.45;5.88;;;;;;;12.35;100.00;101317.03;5113735;28;20042;-78
2023/07/06 01:14:12;;;;;;;10.07;6.15;;;;;;;12.27;100.00;101306.56;5113661;28;20086;-77
2023/07/06 01:16:37;;;;;;;8.77;5.88;;;;;;;12.23;100.00;101316.91;5112396;28;20480;-77
2023/07/06 01:19:23;;;;;;;10.52;5.90;;;;;;;12.15;100.00;101316.31;5095085;28;20031;-77
2023/07/06 01:21:53;;;;;;;9.63;5.43;;;;;;;12.16;100.00;101321.47;5112485;28;20055;-78
2023/07/06 01:24:36;;;;;;;12.23;5.80;;;;;;;12.10;100.00;101325.78;5113223;28;20383;-78
2023/07/06 01:27:32;;;;;;;;;;;;;;;12.12;100.00;101322.91;5095243;28;20479;-77
2023/07/06 01:30:09;;;;;;;9.52;4.95;;;;;;;12.03;100.00;101325.00;5095397;28;19916;-78
2023/07/06 01:32:44;;;;;;;8.63;5.13;;;;;;;11.99;100.00;101323.78;5113163;28;20039;-79
2023/07/06 01:35:18;;;;;;;8.93;5.45;;;;;;;11.98;100.00;101319.47;5112151;28;20047;-80
2023/07/06 01:41:06;;;;;;;14.35;5.38;;;;;;;11.90;100.00;101311.66;5113436;28;20091;-79
2023/07/06 01:46:53;;;;;;;9.18;5.30;;;;;;;11.77;100.00;101312.47;5113178;28;20050;-78
2023/07/06 01:52:57;;;;;;;10.40;5.05;;;;;;;11.68;100.00;101305.72;5112564;28;20180;-81
2023/07/06 01:55:29;;;;;;;9.88;5.32;;;;;;;11.69;100.00;101319.91;5112858;28;20019;-81
2023/07/06 02:01:23;;;;;;;11.75;6.32;;;;;;;11.59;100.00;101322.22;5113172;28;20449;-79
2023/07/06 02:07:11;;;;;;;14.05;6.18;;;;;;;11.49;100.00;101314.59;5112944;28;20050;-79
2023/07/06 02:12:58;;;;;;;11.93;5.60;;;;;;;11.46;100.00;101318.50;5112915;28;20046;-80
2023/07/06 02:18:45;;;;;;;10.35;4.80;;;;;;;11.39;100.00;101317.69;5112324;28;20272;-79
2023/07/06 02:21:11;;;;;;;9.97;5.00;;;;;;;11.37;100.00;101305.56;5112141;28;20031;-78
2023/07/06 02:26:57;;;;;;;11.43;5.13;;;;;;;11.31;100.00;101309.91;5112492;28;20050;-80
2023/07/06 02:32:46;;;;;;;10.38;5.28;;;;;;;11.28;100.00;101301.47;5112535;28;20066;-81
2023/07/06 02:35:12;;;;;;;14.43;5.30;;;;;;;11.28;100.00;101309.50;5094036;28;20023;-80
2023/07/06 02:37:38;;;;;;;10.18;5.15;;;;;;;11.29;100.00;101311.13;5111544;28;20040;-80
2023/07/06 02:40:08;;;;;;;12.48;4.90;;;;;;;11.28;100.00;101304.97;5093971;28;20077;-79
2023/07/06 02:45:56;;;;;;;10.55;4.97;;;;;;;11.36;100.00;101310.09;5113176;28;20445;-82
2023/07/06 02:48:21;;;;;;;11.35;5.20;;;;;;;11.38;100.00;101310.69;5093555;28;20055;-82
2023/07/06 02:50:50;;;;;;;9.63;5.35;;;;;;;11.37;100.00;101301.03;5093761;28;20510;-82
2023/07/06 02:53:16;;;;;;;12.07;5.13;;;;;;;11.44;100.00;101309.03;5093897;28;20070;-83
2023/07/06 02:55:44;;;;;;;11.02;5.15;;;;;;;11.46;100.00;101306.97;5093116;28;20063;-83
2023/07/06 02:58:09;;;;;;;11.55;5.22;;;;;;;11.48;100.00;101319.13;5093914;28;20031;-83
2023/07/06 03:03:56;;;;;;;14.85;6.20;;;;;;;11.46;100.00;101305.13;5112137;28;20088;-83
2023/07/06 03:06:21;;;;;;;9.00;4.80;;;;;;;11.54;100.00;101311.28;5111907;28;20039;-82
2023/07/06 03:12:09;;;;;;;7.57;4.75;;;;;;;11.60;100.00;101318.50;5111997;28;20047;-80
2023/07/06 03:14:34;;;;;;;9.85;4.93;;;;;;;11.57;100.00;101313.56;5092815;28;20043;-79
2023/07/06 03:20:22;;;;;;;12.07;5.30;;;;;;;11.63;100.00;101324.28;5111319;28;20746;-79
2023/07/06 03:26:09;;;;;;;13.32;5.50;;;;;;;11.61;100.00;101320.97;5111496;28;20035;-79
2023/07/06 03:28:35;;;;;;;11.57;4.93;;;;;;;11.64;100.00;101323.22;5092663;28;20040;-79
2023/07/06 03:34:22;;;;;;;12.48;4.95;;;;;;;11.64;100.00;101327.78;5112785;28;20557;-80
2023/07/06 03:36:47;;;;;;;10.15;5.07;;;;;;;11.69;100.00;101339.50;5114921;28;20035;-80
2023/07/06 03:39:12;;;;;;;10.52;5.30;;;;;;;11.69;100.00;101339.50;5096009;28;20066;-80
2023/07/06 03:41:39;;;;;;;8.50;4.50;;;;;;;11.73;100.00;101343.41;5114914;28;20076;-81
2023/07/06 03:47:29;;;;;;;9.93;4.90;;;;;;;11.76;100.00;101345.66;5115520;28;20384;-80
2023/07/06 03:53:17;;;;;;;15.43;5.65;;;;;;;11.70;100.00;101346.50;5114835;28;20042;-79
2023/07/06 03:55:42;;;;;;;11.68;5.90;;;;;;;11.70;100.00;101341.16;5096407;28;20073;-79
2023/07/06 03:58:07;;;;;;;13.03;6.20;;;;;;;11.75;100.00;101348.56;5113817;28;20408;-79
2023/07/06 04:00:35;;;;;;;15.75;5.05;;;;;;;11.75;100.00;101351.22;5114728;28;20277;-80
2023/07/06 04:03:00;;;;;;;8.43;5.10;;;;;;;11.82;100.00;101362.78;5114550;28;20032;-82
2023/07/06 04:08:47;;;;;;;13.70;5.10;;;;;;;11.78;100.00;101361.56;5114712;28;20050;-81
2023/07/06 04:11:13;;;;;;;18.97;5.50;;;;;;;11.83;100.00;101363.59;5113621;28;20039;-80
2023/07/06 04:13:40;;;;;;;13.17;5.17;;;;;;;11.82;100.00;101360.09;5114375;28;20783;-80
2023/07/06 04:16:05;;;;;;;14.10;5.60;;;;;;;11.87;100.00;101371.03;5113450;28;20293;-80
2023/07/06 04:18:33;;;;;;;13.75;4.93;;;;;;;11.86;100.00;101364.03;5096031;28;20047;-80
2023/07/06 04:21:00;;;;;;;14.48;5.57;;;;;;;11.88;100.00;101370.00;5114335;28;20122;-80
2023/07/06 04:26:47;;;;;;;11.15;5.03;;;;;;;12.01;100.00;101367.28;5114201;28;20030;-80
2023/07/06 04:32:34;;;;;;;12.93;6.00;;;;;;;12.06;100.00;101372.00;5114222;28;20097;-80
2023/07/06 04:34:59;;;;;;;11.70;6.07;;;;;;;12.11;100.00;101377.56;5095043;28;20031;-82
2023/07/06 04:40:46;;;;;;;9.60;5.57;;;;;;;12.04;100.00;101353.44;5113746;28;20268;-80
2023/07/06 04:43:12;;;;;;;13.18;5.63;;;;;;;12.21;100.00;101383.31;5095546;28;20406;-80
2023/07/06 04:45:37;;;;;;;12.10;5.63;;;;;;;12.21;100.00;101391.34;5113317;28;20024;-83
2023/07/06 04:48:09;;;;;;;18.08;6.63;;;;;;;12.18;100.00;101388.28;5112939;28;20048;-80
2023/07/06 04:50:37;;;;;;;14.65;6.35;;;;;;;12.15;100.00;101386.84;5095326;28;20085;-80
2023/07/06 04:53:03;;;;;;;17.35;6.50;;;;;;;12.19;100.00;101393.44;5094797;28;20047;-79
2023/07/06 04:55:30;;;;;;;19.88;7.05;;;;;;;12.21;100.00;101386.00;5095154;28;20471;-80
2023/07/06 05:01:19;;;;;;;16.70;6.55;;;;;;;12.46;100.00;101385.28;5113991;28;20506;-80
2023/07/06 05:07:07;;;;;;;16.63;7.13;;;;;;;12.89;100.00;101401.56;5113829;28;20051;-80
2023/07/06 05:09:32;;;;;;;22.20;7.88;;;;;;;12.97;100.00;101385.19;5113582;28;20019;-82
2023/07/06 05:11:58;;;;;;;17.00;8.05;;;;;;;13.01;100.00;101387.25;5094530;28;20051;-83
2023/07/06 05:21:07;;;;;;;16.08;7.93;;;;;;;13.47;100.00;101393.34;5113447;28;20062;-78
2023/07/06 05:26:53;;;;;;;27.20;9.50;;;;;;;13.51;100.00;101397.22;5113447;28;20391;-82
2023/07/06 05:32:41;;;;;;;18.90;8.27;;;;;;;13.58;100.00;101403.38;5113286;28;20276;-82
2023/07/06 05:38:28;;;;;;;18.52;8.40;;;;;;;13.84;100.00;101395.06;5113868;28;20051;-80
2023/07/06 05:44:16;;;;;;;19.30;9.25;;;;;;;14.25;100.00;101409.75;5113764;28;20280;-79
2023/07/06 05:50:03;;;;;;;23.60;9.43;;;;;;;14.59;100.00;101415.59;5113004;28;20039;-79
2023/07/06 05:59:16;;;;;;;19.33;9.68;;;;;;;14.88;100.00;101425.56;5112852;28;20399;-78
2023/07/06 06:05:04;;;;;;;24.00;10.90;;;;;;;15.38;100.00;101420.69;5112786;28;20038;-80
2023/07/06 06:10:52;;;;;;;22.45;10.40;;;;;;;16.13;100.00;101430.81;5113447;28;20050;-78
2023/07/06 06:16:39;;;;;;;22.60;9.75;;;;;;;17.23;100.00;101429.78;5112791;28;20164;-79
2023/07/06 06:19:04;;;;;;;19.27;9.68;;;;;;;17.99;100.00;101436.47;5095154;28;20068;-79
2023/07/06 06:24:51;;;;;;;19.70;9.02;;;;;;;18.91;100.00;101440.34;5113722;28;20455;-79
2023/07/06 06:27:19;;;;;;;17.00;8.73;;;;;;;19.42;100.00;101464.19;5096195;28;20063;-79
2023/07/06 06:29:45;;;;;;;19.30;10.10;;;;;;;20.00;100.00;101457.06;5099497;28;20278;-79
2023/07/06 06:32:12;;;;;;;15.00;8.68;;;;;;;20.71;100.00;101446.59;5113522;28;20032;-78
2023/07/06 06:38:03;;;;;;;18.85;9.35;;;;;;;20.84;98.33;101460.78;5114102;28;20054;-79
2023/07/06 06:43:50;;;;;;;16.80;9.40;;;;;;;19.81;100.00;101469.41;5115381;28;20059;-79
2023/07/06 06:46:16;;;;;;;17.60;10.10;;;;;;;19.72;100.00;101462.84;5117880;28;20032;-79
2023/07/06 06:55:32;;;;;;;22.27;12.18;;;;;;;18.69;100.00;101479.13;5116066;28;20092;-78
2023/07/06 06:57:58;;;;;;;17.38;11.38;;;;;;;19.23;100.00;101479.19;5112067;28;20027;-79
2023/07/06 07:00:23;;;;;;;23.10;11.35;;;;;;;19.30;100.00;101482.50;5111317;28;20480;-82
2023/07/06 07:06:12;;;;;;;21.33;10.70;;;;;;;21.06;100.00;101482.28;5112976;28;20330;-79
2023/07/06 07:12:00;;;;;;;22.45;10.75;;;;;;;22.51;90.24;101489.91;5121580;28;20058;-80
2023/07/06 07:17:47;;;;;;;20.45;11.60;;;;;;;24.04;82.00;101493.34;5122051;28;20043;-80
2023/07/06 07:23:40;;;;;;;20.38;11.40;;;;;;;23.85;84.62;101502.53;5119650;28;20195;-78
2023/07/06 07:29:29;;;;;;;20.50;11.70;;;;;;;22.35;87.82;101510.97;5119514;28;20449;-78
2023/07/06 07:35:18;;;;;;;25.40;15.55;;;;;;;20.99;95.85;101507.84;5121650;28;20092;-77
2023/07/06 07:41:07;;;;;;;25.60;14.35;;;;;;;20.40;99.02;101519.00;5120448;28;20123;-79
2023/07/06 07:46:55;;;;;;;25.23;14.48;;;;;;;20.40;100.00;101516.28;5117177;28;20065;-79
2023/07/06 07:52:42;;;;;;;24.95;13.65;;;;;;;20.16;100.00;101511.47;5121394;28;20502;-78
2023/07/06 07:58:29;;;;;;;21.45;12.43;;;;;;;20.76;100.00;101521.06;5117344;28;20073;-80
2023/07/06 08:04:17;;;;;;;21.10;11.25;;;;;;;24.02;85.59;101527.53;5119046;28;20330;-82
2023/07/06 08:10:04;;;;;;;20.17;10.52;;;;;;;25.83;77.76;101525.53;5117141;28;20046;-80
2023/07/06 08:15:51;;;;;;;18.85;9.13;;;;;;;27.46;70.02;101525.81;5114956;28;20407;-78
2023/07/06 08:21:38;;;;;;;17.42;10.32;;;;;;;28.23;62.91;101541.25;5116296;28;20046;-80
2023/07/06 08:27:26;;;;;;;15.93;10.40;;;;;;;28.51;62.84;101541.88;5114458;28;20050;-78
2023/07/06 08:33:13;;;;;;;15.63;11.43;;;;;;;29.11;58.36;101544.03;5114545;28;20042;-80
2023/07/06 08:42:22;;;;;;;20.33;12.25;;;;;;;26.81;68.25;101539.88;5114950;28;20164;-79
2023/07/06 08:48:12;;;;;;;17.55;10.65;;;;;;;29.97;55.22;101550.66;5114769;28;20047;-81
2023/07/06 08:54:01;;;;;;;13.80;9.27;;;;;;;29.10;57.92;101558.94;5114814;28;20518;-79
2023/07/06 08:59:51;;;;;;;14.65;9.15;;;;;;;28.29;55.28;101547.44;5114827;28;20066;-80
2023/07/06 09:05:42;;;;;;;14.85;9.52;;;;;;;26.44;64.90;101556.56;5114661;28;20130;-79
2023/07/06 09:11:33;;;;;;;15.60;9.95;;;;;;;26.27;64.59;101564.50;5114616;28;20045;-79
2023/07/06 09:17:21;;;;;;;14.70;9.35;;;;;;;28.53;58.04;101569.91;5114164;28;20062;-80
2023/07/06 09:23:13;;;;;;;14.40;8.52;;;;;;;27.36;61.22;101564.53;5114337;28;20181;-80
2023/07/06 09:29:18;;;;;;;12.85;8.48;;;;;;;24.52;70.81;101561.75;5114265;28;20068;-79
2023/07/06 09:35:13;;;;;;;10.82;7.07;;;;;;;27.57;61.39;101558.59;5113346;28;20050;-79
2023/07/06 09:41:01;;;;;;;12.18;5.93;;;;;;;28.19;55.46;101566.97;5113584;28;20045;-78
2023/07/06 09:46:48;;;;;;;11.05;5.75;;;;;;;25.32;67.20;101564.63;5113279;28;20092;-77
2023/07/06 09:52:39;;;;;;;12.73;5.97;;;;;;;23.86;72.68;101564.28;5112915;28;20039;-79
2023/07/06 09:58:29;;;;;;;12.25;5.97;;;;;;;22.22;81.29;101566.84;5112889;28;20073;-79
2023/07/06 10:04:45;;;;;;;12.93;6.40;;;;;;;23.07;80.13;101558.72;5113094;28;20169;-79
2023/07/06 10:14:13;;;;;;;9.57;5.20;;;;;;;24.38;74.84;101555.38;5112756;28;20057;-78
2023/07/06 10:20:10;;;;;;;11.02;4.70;;;;;;;25.37;68.84;101566.47;5112903;28;20034;-79
2023/07/06 10:26:26;;;;;;;7.10;3.78;;;;;;;25.20;65.39;101564.28;5113141;28;20556;-78
2023/07/06 10:32:24;;;;;;;6.55;3.47;;;;;;;27.31;58.21;101552.84;5113162;28;20047;-78
2023/07/06 10:38:12;;;;;;;7.60;3.38;;;;;;;27.63;52.26;101549.13;5112953;28;20047;-82
2023/07/06 10:47:39;;;;;;;9.30;3.30;;;;;;;26.16;55.70;101545.50;5112406;28;20101;-81
2023/07/06 10:53:41;;;;;;;7.15;3.05;;;;;;;25.63;59.21;101547.75;5112562;28;20042;-79
2023/07/06 10:59:52;;;;;;;8.23;3.30;;;;;;;24.59;63.41;101553.22;5112319;28;20043;-82
2023/07/06 11:05:55;;;;;;;10.02;3.35;;;;;;;22.75;70.23;101550.09;5112225;28;20100;-79
2023/07/06 11:11:51;;;;;;;7.68;3.00;;;;;;;24.99;63.91;101566.44;5112124;28;20096;-80
2023/07/06 11:17:40;;;;;;;8.25;3.20;;;;;;;24.22;64.04;101573.78;5111979;28;20070;-78
2023/07/06 11:23:35;;;;;;;9.82;3.17;;;;;;;23.51;67.00;101568.03;5111704;28;20104;-78
2023/07/06 11:29:28;;;;;;;7.80;3.30;;;;;;;22.80;70.04;101566.44;5111831;28;20042;-79
2023/07/06 11:35:43;;;;;;;13.20;3.75;;;;;;;22.74;72.52;101573.00;5111900;28;20435;-79
2023/07/06 11:41:43;;;;;;;8.18;4.18;;;;;;;22.95;70.95;101577.34;5111376;28;19923;-80
2023/07/06 11:47:45;;;;;;;9.65;4.65;;;;;;;22.51;73.02;101583.41;5111575;28;20116;-81
2023/07/06 11:53:44;;;;;;;6.95;4.20;;;;;;;23.38;71.05;101581.22;5111577;28;20069;-79
2023/07/06 11:59:38;;;;;;;6.75;3.65;;;;;;;23.91;71.78;101575.16;5114901;28;20046;-79
2023/07/06 12:02:16;;;;;;;10.52;3.67;;;;;;;25.51;65.61;101589.28;5113827;28;20071;-79
2023/07/06 12:08:10;;;;;;;8.93;3.47;;;;;;;26.87;52.48;101581.75;5114923;28;20065;-81
2023/07/06 12:13:58;;;;;;;7.90;3.08;;;;;;;27.37;53.81;101579.91;5113967;28;20051;-79
2023/07/06 12:19:45;;;;;;;6.78;3.00;;;;;;;27.43;50.95;101575.91;5114549;28;20503;-82
2023/07/06 12:25:32;;;;;;;4.78;2.72;;;;;;;26.24;53.07;101582.38;5114271;28;20272;-82
2023/07/06 12:31:19;;;;;;;6.70;3.00;;;;;;;25.54;55.30;101590.63;5113350;28;20288;-80
2023/07/06 12:37:10;;;;;;;6.82;2.97;;;;;;;25.87;55.66;101580.56;5114018;28;20346;-80
2023/07/06 12:42:57;;;;;;;7.05;3.35;;;;;;;27.50;51.87;101577.44;5115018;28;20068;-84
2023/07/06 12:48:51;;;;;;;4.32;2.58;;;;;;;25.05;54.54;101575.41;5114364;28;20533;-82
2023/07/06 12:54:22;;;;;;;7.28;2.95;;;;;;;24.14;59.68;101577.16;5114046;28;20049;-84
2023/07/06 13:00:21;;;;;;;5.10;3.22;;;;;;;23.57;63.02;101556.03;5113985;28;20395;-83
2023/07/06 13:02:55;;;;;;;6.00;3.65;;;;;;;23.59;62.30;101575.66;5112798;28;20158;-81
2023/07/06 13:08:43;;;;;;;7.82;4.03;;;;;;;24.38;62.78;101575.31;5113921;28;20542;-81
2023/07/06 13:14:33;;;;;;;11.93;3.90;;;;;;;25.47;60.86;101580.03;5113950;28;20093;-79
2023/07/06 13:20:20;;;;;;;8.32;3.47;;;;;;;26.05;55.71;101576.97;5113695;28;20055;-81
2023/07/06 13:26:07;;;;;;;7.80;3.10;;;;;;;25.73;54.15;101574.19;5113957;28;20041;-80
2023/07/06 13:31:56;;;;;;;5.68;3.30;;;;;;;25.58;52.79;101567.00;5113315;28;20047;-82
2023/07/06 13:37:46;;;;;;;5.90;2.95;;;;;;;24.60;54.86;101574.81;5113167;28;20142;-81
2023/07/06 13:43:33;;;;;;;5.72;3.10;;;;;;;24.12;57.20;101571.16;5113250;28;20085;-82
2023/07/06 13:49:19;;;;;;;7.55;3.10;;;;;;;24.73;58.61;101575.22;5113094;28;20494;-81
2023/07/06 13:55:22;;;;;;;7.05;3.08;;;;;;;24.37;55.80;101570.13;5113326;28;20054;-81
2023/07/06 14:01:15;;;;;;;6.55;2.83;;;;;;;23.92;59.97;101568.59;5113191;28;20504;-82
2023/07/06 14:07:02;;;;;;;7.78;3.60;;;;;;;23.35;61.19;101553.66;5113058;28;20096;-79
2023/07/06 14:12:52;;;;;;;6.10;3.00;;;;;;;23.44;59.28;101566.44;5112037;28;20083;-83
2023/07/06 14:18:39;;;;;;;9.88;3.70;;;;;;;23.66;60.38;101565.22;5111911;28;20403;-79
2023/07/06 14:24:26;;;;;;;7.55;3.00;;;;;;;23.12;61.97;101552.41;5112712;28;20682;-80
2023/07/06 14:30:13;;;;;;;7.07;2.92;;;;;;;23.27;61.21;101566.00;5112611;28;20034;-81
2023/07/06 14:36:01;;;;;;;6.15;3.35;;;;;;;23.45;59.03;101559.91;5112634;28;20066;-81
2023/07/06 14:41:48;;;;;;;5.07;3.00;;;;;;;23.16;60.43;101559.78;5112533;28;20074;-80
2023/07/06 14:47:35;;;;;;;7.25;3.47;;;;;;;22.78;64.11;101555.00;5112071;28;20271;-79
2023/07/06 14:53:22;;;;;;;8.32;3.10;;;;;;;23.13;66.42;101554.03;5112469;28;20045;-80
2023/07/06 14:55:47;;;;;;;5.60;2.87;;;;;;;23.21;62.05;101552.66;5111143;28;20110;-79
2023/07/06 15:01:34;;;;;;;13.20;2.95;;;;;;;23.63;62.90;101554.88;5112555;28;20078;-79
2023/07/06 15:07:21;;;;;;;6.00;3.10;;;;;;;23.15;62.16;101554.59;5111690;28;20131;-79
2023/07/06 15:13:08;;;;;;;5.32;2.85;;;;;;;23.06;65.14;101550.81;5111967;28;20122;-78
2023/07/06 15:18:54;;;;;;;7.60;3.30;;;;;;;23.02;61.30;101547.84;5111740;28;20042;-79
2023/07/06 15:24:41;;;;;;;6.30;2.92;;;;;;;23.59;60.03;101526.50;5110860;28;20339;-82
2023/07/06 15:30:28;;;;;;;5.13;2.38;;;;;;;23.61;60.67;101546.16;5114645;28;20771;-79
2023/07/06 15:36:16;;;;;;;5.20;2.83;;;;;;;23.28;60.66;101543.06;5114654;28;20433;-78
2023/07/06 15:42:03;;;;;;;6.57;2.90;;;;;;;23.39;63.70;101530.97;5115272;28;20038;-77
2023/07/06 15:51:13;;;;;;;6.38;2.80;;;;;;;23.86;60.77;101523.28;5115403;28;20522;-79
2023/07/06 15:57:01;;;;;;;6.47;2.95;;;;;;;23.37;60.13;101519.53;5114899;28;20088;-79
2023/07/06 16:02:47;;;;;;;6.60;2.75;;;;;;;23.45;59.20;101515.41;5114847;28;20058;-79
2023/07/06 16:08:34;;;;;;;4.85;2.72;;;;;;;23.76;64.12;101522.28;5114417;28;20288;-78
2023/07/06 16:14:20;;;;;;;6.90;2.60;;;;;;;23.79;56.88;101518.97;5114524;28;20043;-78
2023/07/06 16:20:08;;;;;;;10.95;3.10;;;;;;;23.66;61.15;101519.63;5114314;28;20423;-78
2023/07/06 16:26:05;;;;;;;5.18;2.28;;;;;;;23.63;59.32;101517.47;5114795;28;20384;-78
2023/07/06 16:31:51;;;;;;;7.55;3.08;;;;;;;23.65;59.60;101514.44;5114376;28;20404;-76
2023/07/06 16:37:39;;;;;;;7.60;2.75;;;;;;;23.33;63.13;101514.91;5114047;28;20077;-80
2023/07/06 16:43:26;;;;;;;6.32;2.72;;;;;;;23.21;61.77;101518.00;5114293;28;20380;-77
2023/07/06 16:49:12;;;;;;;7.70;2.65;;;;;;;23.14;60.54;101515.59;5113876;28;20072;-77
2023/07/06 16:54:59;;;;;;;5.00;2.67;;;;;;;22.93;61.06;101518.69;5114194;28;20093;-77
2023/07/06 17:00:47;;;;;;;7.28;2.95;;;;;;;22.67;66.35;101521.50;5113687;28;20056;-78
2023/07/06 17:06:33;;;;;;;4.47;2.50;;;;;;;22.85;66.89;101520.09;5112753;28;20090;-78
2023/07/06 17:12:20;;;;;;;4.90;2.40;;;;;;;22.69;63.87;101510.31;5112486;28;20318;-77
2023/07/06 17:18:08;;;;;;;6.85;2.90;;;;;;;22.67;65.00;101520.69;5113403;28;20336;-78
2023/07/06 17:23:55;;;;;;;5.40;2.58;;;;;;;22.86;67.68;101521.75;5113615;28;20126;-76
2023/07/06 17:29:42;;;;;;;8.25;3.20;;;;;;;22.84;65.96;101516.56;5113300;28;20272;-75
2023/07/06 17:35:29;;;;;;;7.15;2.75;;;;;;;22.94;62.26;101523.06;5113098;28;20525;-76
2023/07/06 17:41:16;;;;;;;5.70;2.63;;;;;;;22.92;66.04;101530.72;5113015;28;20288;-77
2023/07/06 17:47:03;;;;;;;6.43;2.47;;;;;;;23.02;61.50;101528.72;5113417;28;20039;-76
2023/07/06 17:52:50;;;;;;;7.32;2.83;;;;;;;23.06;65.23;101531.72;5111395;28;20047;-75
2023/07/06 17:58:37;;;;;;;4.72;2.58;;;;;;;22.84;62.90;101535.66;5112559;28;20399;-76
2023/07/06 18:04:24;;;;;;;4.75;2.63;;;;;;;22.60;67.05;101525.63;5112823;28;20047;-76
2023/07/06 18:10:11;;;;;;;5.15;2.78;;;;;;;22.23;68.93;101518.59;5112465;28;20458;-79
2023/07/06 18:15:59;;;;;;;5.57;2.70;;;;;;;22.12;73.27;101528.72;5112589;28;20445;-78
2023/07/06 18:21:46;;;;;;;4.63;2.45;;;;;;;22.23;68.35;101526.78;5112675;28;20047;-78
2023/07/06 18:27:33;;;;;;;5.35;2.72;;;;;;;22.24;75.38;101534.69;5113942;28;20050;-79
2023/07/06 18:33:20;;;;;;;8.30;3.03;;;;;;;21.76;72.74;101530.59;5112141;28;20333;-80
2023/07/06 18:39:07;;;;;;;6.70;3.28;;;;;;;21.52;75.38;101535.75;5112231;28;20046;-81
2023/07/06 18:45:01;;;;;;;3.90;2.55;;;;;;;21.05;84.19;101538.59;5112420;28;20299;-78
2023/07/06 18:50:49;;;;;;;7.38;3.20;;;;;;;20.91;86.46;101548.34;5112103;28;20178;-79
2023/07/06 18:56:36;;;;;;;6.45;3.03;;;;;;;20.57;96.03;101547.91;5111913;28;20043;-78
2023/07/06 19:02:23;;;;;;;5.07;2.90;;;;;;;20.19;96.52;101544.34;5112096;28;20051;-78
2023/07/06 19:04:48;;;;;;;6.97;3.00;;;;;;;20.16;93.80;101550.31;5094747;28;20039;-79
2023/07/06 19:10:40;;;;;;;5.85;2.95;;;;;;;20.03;96.22;101554.28;5115731;28;20078;-81
2023/07/06 19:16:27;;;;;;;5.63;2.72;;;;;;;19.78;100.00;101559.50;5115722;28;20035;-81
2023/07/06 19:22:14;;;;;;;7.18;3.50;;;;;;;19.33;100.00;101566.06;5115258;28;20284;-77
2023/07/06 19:28:01;;;;;;;6.18;3.30;;;;;;;18.89;100.00;101559.88;5115261;28;20034;-77
2023/07/06 19:30:30;;;;;;;9.43;3.23;;;;;;;18.72;100.00;101556.38;5114094;28;20039;-76
2023/07/06 19:36:18;;;;;;;6.85;3.00;;;;;;;18.61;100.00;101563.53;5115745;28;20559;-77
2023/07/06 19:42:05;;;;;;;5.07;3.10;;;;;;;18.45;100.00;101567.88;5115046;28;20585;-77
2023/07/06 19:47:54;;;;;;;4.97;3.17;;;;;;;18.10;100.00;101572.75;5115024;28;20626;-77
2023/07/06 19:53:41;;;;;;;5.70;3.20;;;;;;;17.82;100.00;101577.16;5114684;28;20081;-76
2023/07/06 19:59:28;;;;;;;6.65;3.22;;;;;;;17.54;100.00;101577.97;5114770;28;20334;-77
2023/07/06 20:05:15;;;;;;;5.70;3.15;;;;;;;17.44;100.00;101601.31;5114715;28;20281;-77
2023/07/06 20:11:02;;;;;;;7.07;3.63;;;;;;;17.45;100.00;101600.25;5114694;28;20100;-77
2023/07/06 20:16:49;;;;;;;6.63;3.50;;;;;;;17.47;100.00;101596.25;5113329;28;20403;-76
2023/07/06 20:22:36;;;;;;;6.28;4.00;;;;;;;17.30;100.00;101603.47;5114340;28;20273;-76
2023/07/06 20:28:23;;;;;;;6.40;3.50;;;;;;;16.95;100.00;101603.53;5114392;28;20444;-76
2023/07/06 20:34:10;;;;;;;6.20;3.75;;;;;;;16.53;100.00;101602.84;5114384;28;20084;-75
2023/07/06 20:39:57;;;;;;;6.00;3.85;;;;;;;16.24;100.00;101608.13;5114110;28;20356;-75
2023/07/06 20:45:43;;;;;;;8.93;4.68;;;;;;;16.05;100.00;101609.25;5114054;28;20268;-78
2023/07/06 20:51:30;;;;;;;8.73;4.10;;;;;;;16.06;100.00;101617.09;5114512;28;20380;-78
2023/07/06 20:57:17;;;;;;;8.35;4.00;;;;;;;16.06;100.00;101621.69;5113907;28;20035;-78
2023/07/06 21:03:04;;;;;;;8.57;3.88;;;;;;;15.98;100.00;101619.31;5113746;28;20276;-77
2023/07/06 21:08:51;;;;;;;9.05;4.32;;;;;;;15.76;100.00;101627.91;5113905;28;20259;-78
2023/07/06 21:14:37;;;;;;;7.43;5.28;;;;;;;15.65;100.00;101633.28;5113451;28;20291;-81
2023/07/06 21:20:24;;;;;;;9.38;3.95;;;;;;;15.59;100.00;101637.69;5109142;28;20309;-78
2023/07/06 21:26:11;;;;;;;7.68;4.45;;;;;;;15.45;100.00;101626.25;5113338;28;20318;-80
2023/07/06 21:31:58;;;;;;;8.82;4.35;;;;;;;15.37;100.00;101640.03;5113217;28;20322;-81
2023/07/06 21:37:45;;;;;;;6.43;4.43;;;;;;;15.23;100.00;101640.41;5113135;28;20111;-80
2023/07/06 21:43:32;;;;;;;6.00;4.18;;;;;;;15.16;100.00;101632.41;5113641;28;20039;-80
2023/07/06 21:49:19;;;;;;;11.27;4.45;;;;;;;15.13;100.00;101638.25;5112925;28;20073;-78
2023/07/06 21:51:45;;;;;;;9.40;4.60;;;;;;;15.17;100.00;101640.25;5094066;28;20040;-78
2023/07/06 21:57:32;;;;;;;7.47;4.43;;;;;;;15.01;100.00;101638.13;5112871;28;20122;-80
2023/07/06 22:03:19;;;;;;;10.23;4.75;;;;;;;14.92;100.00;101658.34;5112048;28;20065;-80
2023/07/06 22:09:07;;;;;;;9.45;4.70;;;;;;;14.78;100.00;101657.66;5112963;28;20046;-80
2023/07/06 22:14:53;;;;;;;6.50;4.43;;;;;;;14.65;100.00;101651.56;5113180;28;20046;-81
2023/07/06 22:20:40;;;;;;;7.50;4.47;;;;;;;14.65;100.00;101657.75;5112449;28;20401;-81
2023/07/06 22:26:27;;;;;;;7.65;5.20;;;;;;;14.58;100.00;101657.00;5112187;28;20264;-82
2023/07/06 22:32:14;;;;;;;7.72;4.93;;;;;;;14.44;100.00;101656.28;5112266;28;20772;-80
2023/07/06 22:34:39;;;;;;;6.23;4.53;;;;;;;14.36;100.00;101656.53;5093474;28;20039;-80
2023/07/06 22:40:29;;;;;;;8.73;5.80;;;;;;;14.24;100.00;101658.28;5111653;28;20088;-80
2023/07/06 22:46:16;;;;;;;12.07;6.05;;;;;;;14.11;100.00;101658.38;5111760;28;20416;-79
2023/07/06 22:52:04;;;;;;;8.45;5.82;;;;;;;13.97;100.00;101657.63;5112610;28;20621;-80
2023/07/06 22:57:52;;;;;;;9.23;6.00;;;;;;;13.92;100.00;101658.28;5112085;28;20088;-80
2023/07/06 23:03:38;;;;;;;5.63;5.03;;;;;;;13.94;100.00;101660.75;5111984;28;20116;-80
2023/07/06 23:06:04;;;;;;;8.53;5.67;;;;;;;13.83;100.00;101646.13;5093117;28;20488;-80
2023/07/06 23:11:50;;;;;;;8.00;5.82;;;;;;;13.74;100.00;101657.34;5111799;28;20349;-80
2023/07/06 23:17:37;;;;;;;8.18;6.00;;;;;;;13.67;100.00;101659.25;5110994;28;20300;-80
2023/07/06 23:23:25;;;;;;;9.00;6.15;;;;;;;13.70;100.00;101673.09;5111837;28;20054;-80
2023/07/06 23:29:12;;;;;;;8.35;6.53;;;;;;;13.70;100.00;101678.47;5112148;28;20063;-80
2023/07/06 23:34:59;;;;;;;7.65;6.85;;;;;;;13.58;100.00;101664.03;5111636;28;20442;-80
2023/07/06 23:37:25;;;;;;;9.27;6.33;;;;;;;13.57;100.00;101671.25;5110565;28;20036;-81
2023/07/06 23:43:12;;;;;;;9.68;6.93;;;;;;;13.45;100.00;101675.66;5111764;28;20042;-80